sensor_id;sensor_type;location;lat;lon;timestamp;P1;durP1;ratioP1;P2;durP2;ratioP2
14013;SDS011;49110;52.584;13.408;2024-03-25T00:00:56;53.63;;;50.77;;
14013;SDS011;49110;52.584;13.408;2024-03-25T00:02:02;50.50;;;48.00;;
14013;SDS011;49110;52.584;13.408;2024-03-25T00:03:03;53.80;;;51.20;;
14013;SDS011;49110;52.584;13.408;2024-03-25T00:04:04;53.70;;;51.10;;
14013;SDS011;49110;52.584;13.408;2024-03-25T00:05:04;55.33;;;52.63;;
14013;SDS011;49110;52.584;13.408;2024-03-25T00:06:09;53.13;;;50.53;;
14013;SDS011;49110;52.584;13.408;2024-03-25T00:07:11;54.67;;;51.97;;
14013;SDS011;49110;52.584;13.408;2024-03-25T00:08:11;53.53;;;50.87;;
14013;SDS011;49110;52.584;13.408;2024-03-25T00:09:12;55.10;;;52.37;;
14013;SDS011;49110;52.584;13.408;2024-03-25T00:10:14;51.27;;;48.73;;
14013;SDS011;49110;52.584;13.408;2024-03-25T00:11:14;53.90;;;51.17;;
14013;SDS011;49110;52.584;13.408;2024-03-25T00:12:15;53.63;;;51.00;;
14013;SDS011;49110;52.584;13.408;2024-03-25T00:13:15;54.00;;;51.33;;
14013;SDS011;49110;52.584;13.408;2024-03-25T00:14:16;52.33;;;49.80;;
14013;SDS011;49110;52.584;13.408;2024-03-25T00:15:16;53.60;;;50.97;;
14013;SDS011;49110;52.584;13.408;2024-03-25T00:16:17;51.33;;;48.83;;
14013;SDS011;49110;52.584;13.408;2024-03-25T00:17:18;51.60;;;49.07;;
14013;SDS011;49110;52.584;13.408;2024-03-25T00:18:19;52.27;;;49.67;;
14013;SDS011;49110;52.584;13.408;2024-03-25T00:19:20;58.70;;;55.77;;
14013;SDS011;49110;52.584;13.408;2024-03-25T00:20:21;55.70;;;52.97;;
14013;SDS011;49110;52.584;13.408;2024-03-25T00:21:21;55.70;;;52.87;;
14013;SDS011;49110;52.584;13.408;2024-03-25T00:22:22;55.73;;;52.97;;
14013;SDS011;49110;52.584;13.408;2024-03-25T00:23:25;55.80;;;53.07;;
14013;SDS011;49110;52.584;13.408;2024-03-25T00:24:25;56.10;;;53.30;;
14013;SDS011;49110;52.584;13.408;2024-03-25T00:25:26;53.80;;;51.07;;
14013;SDS011;49110;52.584;13.408;2024-03-25T00:26:27;54.97;;;52.27;;
14013;SDS011;49110;52.584;13.408;2024-03-25T00:27:27;55.83;;;53.10;;
14013;SDS011;49110;52.584;13.408;2024-03-25T00:28:30;54.50;;;51.80;;
14013;SDS011;49110;52.584;13.408;2024-03-25T00:29:30;58.13;;;55.30;;
14013;SDS011;49110;52.584;13.408;2024-03-25T00:30:31;56.40;;;53.60;;
14013;SDS011;49110;52.584;13.408;2024-03-25T00:31:31;57.17;;;54.30;;
14013;SDS011;49110;52.584;13.408;2024-03-25T00:32:32;57.37;;;54.50;;
14013;SDS011;49110;52.584;13.408;2024-03-25T00:33:32;55.10;;;52.33;;
14013;SDS011;49110;52.584;13.408;2024-03-25T00:34:33;54.57;;;51.83;;
14013;SDS011;49110;52.584;13.408;2024-03-25T00:35:36;52.60;;;50.03;;
14013;SDS011;49110;52.584;13.408;2024-03-25T00:36:36;54.70;;;52.00;;
14013;SDS011;49110;52.584;13.408;2024-03-25T00:37:37;54.00;;;51.20;;
14013;SDS011;49110;52.584;13.408;2024-03-25T00:38:38;52.70;;;49.97;;
14013;SDS011;49110;52.584;13.408;2024-03-25T00:39:39;56.33;;;53.47;;
14013;SDS011;49110;52.584;13.408;2024-03-25T00:40:40;53.50;;;50.90;;
14013;SDS011;49110;52.584;13.408;2024-03-25T00:41:41;52.90;;;50.30;;
14013;SDS011;49110;52.584;13.408;2024-03-25T00:42:41;54.97;;;52.20;;
14013;SDS011;49110;52.584;13.408;2024-03-25T00:43:43;53.73;;;51.10;;
14013;SDS011;49110;52.584;13.408;2024-03-25T00:44:43;53.30;;;50.63;;
14013;SDS011;49110;52.584;13.408;2024-03-25T00:45:44;51.37;;;48.70;;
14013;SDS011;49110;52.584;13.408;2024-03-25T00:46:46;52.83;;;50.20;;
14013;SDS011;49110;52.584;13.408;2024-03-25T00:47:47;51.80;;;49.27;;
14013;SDS011;49110;52.584;13.408;2024-03-25T00:48:48;50.93;;;48.30;;
14013;SDS011;49110;52.584;13.408;2024-03-25T00:49:49;52.97;;;50.30;;
14013;SDS011;49110;52.584;13.408;2024-03-25T00:50:49;51.67;;;49.10;;
14013;SDS011;49110;52.584;13.408;2024-03-25T00:51:50;50.53;;;48.00;;
14013;SDS011;49110;52.584;13.408;2024-03-25T00:52:50;52.77;;;50.17;;
14013;SDS011;49110;52.584;13.408;2024-03-25T00:53:51;54.27;;;51.57;;
14013;SDS011;49110;52.584;13.408;2024-03-25T00:54:52;54.87;;;52.13;;
14013;SDS011;49110;52.584;13.408;2024-03-25T00:55:53;50.83;;;48.23;;
14013;SDS011;49110;52.584;13.408;2024-03-25T00:56:53;52.97;;;50.37;;
14013;SDS011;49110;52.584;13.408;2024-03-25T00:57:54;53.97;;;51.27;;
14013;SDS011;49110;52.584;13.408;2024-03-25T00:58:55;52.67;;;50.07;;
14013;SDS011;49110;52.584;13.408;2024-03-25T00:59:57;51.83;;;49.25;;
14013;SDS011;49110;52.584;13.408;2024-03-25T01:00:57;50.73;;;48.20;;
14013;SDS011;49110;52.584;13.408;2024-03-25T01:01:58;51.70;;;49.10;;
14013;SDS011;49110;52.584;13.408;2024-03-25T01:02:59;52.33;;;49.63;;
14013;SDS011;49110;52.584;13.408;2024-03-25T01:03:59;49.97;;;47.47;;
14013;SDS011;49110;52.584;13.408;2024-03-25T01:05:00;53.03;;;50.43;;
14013;SDS011;49110;52.584;13.408;2024-03-25T01:06:00;53.73;;;51.10;;
14013;SDS011;49110;52.584;13.408;2024-03-25T01:07:01;50.63;;;48.10;;
14013;SDS011;49110;52.584;13.408;2024-03-25T01:08:02;50.90;;;48.30;;
14013;SDS011;49110;52.584;13.408;2024-03-25T01:09:03;52.10;;;49.50;;
14013;SDS011;49110;52.584;13.408;2024-03-25T01:10:04;53.20;;;50.57;;
14013;SDS011;49110;52.584;13.408;2024-03-25T01:11:06;49.97;;;47.23;;
14013;SDS011;49110;52.584;13.408;2024-03-25T01:12:07;49.00;;;46.53;;
14013;SDS011;49110;52.584;13.408;2024-03-25T01:13:07;54.90;;;52.17;;
14013;SDS011;49110;52.584;13.408;2024-03-25T01:14:08;51.27;;;48.57;;
14013;SDS011;49110;52.584;13.408;2024-03-25T01:15:08;54.27;;;51.50;;
14013;SDS011;49110;52.584;13.408;2024-03-25T01:16:12;50.97;;;48.33;;
14013;SDS011;49110;52.584;13.408;2024-03-25T01:17:13;52.27;;;49.63;;
14013;SDS011;49110;52.584;13.408;2024-03-25T01:18:13;53.53;;;50.87;;
14013;SDS011;49110;52.584;13.408;2024-03-25T01:19:14;53.17;;;50.37;;
14013;SDS011;49110;52.584;13.408;2024-03-25T01:20:14;55.13;;;52.40;;
14013;SDS011;49110;52.584;13.408;2024-03-25T01:21:15;52.70;;;50.00;;
14013;SDS011;49110;52.584;13.408;2024-03-25T01:22:15;51.60;;;49.00;;
14013;SDS011;49110;52.584;13.408;2024-03-25T01:23:16;51.73;;;49.10;;
14013;SDS011;49110;52.584;13.408;2024-03-25T01:24:17;52.80;;;50.13;;
14013;SDS011;49110;52.584;13.408;2024-03-25T01:25:17;55.33;;;52.40;;
14013;SDS011;49110;52.584;13.408;2024-03-25T01:26:18;51.63;;;48.93;;
14013;SDS011;49110;52.584;13.408;2024-03-25T01:27:19;55.57;;;52.67;;
14013;SDS011;49110;52.584;13.408;2024-03-25T01:28:19;55.17;;;52.27;;
14013;SDS011;49110;52.584;13.408;2024-03-25T01:29:20;51.33;;;48.67;;
14013;SDS011;49110;52.584;13.408;2024-03-25T01:30:20;52.77;;;50.03;;
14013;SDS011;49110;52.584;13.408;2024-03-25T01:31:21;48.80;;;46.27;;
14013;SDS011;49110;52.584;13.408;2024-03-25T01:32:21;50.63;;;47.87;;
14013;SDS011;49110;52.584;13.408;2024-03-25T01:33:23;52.23;;;49.50;;
14013;SDS011;49110;52.584;13.408;2024-03-25T01:34:23;50.90;;;48.27;;
14013;SDS011;49110;52.584;13.408;2024-03-25T01:35:28;52.40;;;49.70;;
14013;SDS011;49110;52.584;13.408;2024-03-25T01:36:35;49.07;;;46.47;;
14013;SDS011;49110;52.584;13.408;2024-03-25T01:37:36;48.40;;;45.93;;
14013;SDS011;49110;52.584;13.408;2024-03-25T01:38:39;48.43;;;45.83;;
14013;SDS011;49110;52.584;13.408;2024-03-25T01:39:39;49.43;;;46.87;;
14013;SDS011;49110;52.584;13.408;2024-03-25T01:40:40;54.63;;;51.80;;
14013;SDS011;49110;52.584;13.408;2024-03-25T01:41:41;52.77;;;49.97;;
14013;SDS011;49110;52.584;13.408;2024-03-25T01:42:41;54.20;;;51.30;;
14013;SDS011;49110;52.584;13.408;2024-03-25T01:43:42;53.93;;;51.13;;
14013;SDS011;49110;52.584;13.408;2024-03-25T01:44:42;54.93;;;52.10;;
14013;SDS011;49110;52.584;13.408;2024-03-25T01:45:43;53.37;;;50.70;;
14013;SDS011;49110;52.584;13.408;2024-03-25T01:46:44;54.30;;;51.47;;
14013;SDS011;49110;52.584;13.408;2024-03-25T01:47:44;53.00;;;50.27;;
14013;SDS011;49110;52.584;13.408;2024-03-25T01:48:45;52.70;;;49.90;;
14013;SDS011;49110;52.584;13.408;2024-03-25T01:49:48;54.13;;;51.33;;
14013;SDS011;49110;52.584;13.408;2024-03-25T01:50:49;54.20;;;51.43;;
14013;SDS011;49110;52.584;13.408;2024-03-25T01:51:50;54.27;;;51.43;;
14013;SDS011;49110;52.584;13.408;2024-03-25T01:52:51;56.27;;;53.30;;
14013;SDS011;49110;52.584;13.408;2024-03-25T01:53:52;53.43;;;50.67;;
14013;SDS011;49110;52.584;13.408;2024-03-25T01:54:54;53.23;;;50.43;;
14013;SDS011;49110;52.584;13.408;2024-03-25T01:55:55;51.93;;;49.10;;
14013;SDS011;49110;52.584;13.408;2024-03-25T01:56:59;57.20;;;54.13;;
14013;SDS011;49110;52.584;13.408;2024-03-25T01:57:59;54.40;;;51.60;;
14013;SDS011;49110;52.584;13.408;2024-03-25T01:59:01;52.07;;;49.33;;
14013;SDS011;49110;52.584;13.408;2024-03-25T02:00:02;57.10;;;54.07;;
14013;SDS011;49110;52.584;13.408;2024-03-25T02:01:04;54.43;;;51.47;;
14013;SDS011;49110;52.584;13.408;2024-03-25T02:02:05;56.13;;;53.20;;
14013;SDS011;49110;52.584;13.408;2024-03-25T02:03:06;58.70;;;55.50;;
14013;SDS011;49110;52.584;13.408;2024-03-25T02:04:07;56.43;;;53.37;;
14013;SDS011;49110;52.584;13.408;2024-03-25T02:05:08;54.03;;;51.20;;
14013;SDS011;49110;52.584;13.408;2024-03-25T02:06:22;51.60;;;48.90;;
14013;SDS011;49110;52.584;13.408;2024-03-25T02:07:26;55.07;;;52.10;;
14013;SDS011;49110;52.584;13.408;2024-03-25T02:08:28;58.63;;;55.57;;
14013;SDS011;49110;52.584;13.408;2024-03-25T02:09:29;56.43;;;53.43;;
14013;SDS011;49110;52.584;13.408;2024-03-25T02:10:30;56.43;;;53.47;;
14013;SDS011;49110;52.584;13.408;2024-03-25T02:11:30;57.47;;;54.50;;
14013;SDS011;49110;52.584;13.408;2024-03-25T02:12:32;57.20;;;54.17;;
14013;SDS011;49110;52.584;13.408;2024-03-25T02:13:34;59.67;;;56.57;;
14013;SDS011;49110;52.584;13.408;2024-03-25T02:14:35;58.67;;;55.60;;
14013;SDS011;49110;52.584;13.408;2024-03-25T02:15:36;59.43;;;56.33;;
14013;SDS011;49110;52.584;13.408;2024-03-25T02:16:37;57.93;;;55.00;;
14013;SDS011;49110;52.584;13.408;2024-03-25T02:17:37;56.10;;;53.30;;
14013;SDS011;49110;52.584;13.408;2024-03-25T02:18:37;58.20;;;55.13;;
14013;SDS011;49110;52.584;13.408;2024-03-25T02:19:38;58.57;;;55.57;;
14013;SDS011;49110;52.584;13.408;2024-03-25T02:20:40;58.30;;;55.30;;
14013;SDS011;49110;52.584;13.408;2024-03-25T02:21:41;52.77;;;50.07;;
14013;SDS011;49110;52.584;13.408;2024-03-25T02:22:42;53.07;;;50.43;;
14013;SDS011;49110;52.584;13.408;2024-03-25T02:23:42;52.57;;;49.73;;
14013;SDS011;49110;52.584;13.408;2024-03-25T02:24:46;50.87;;;48.27;;
14013;SDS011;49110;52.584;13.408;2024-03-25T02:25:51;48.73;;;46.30;;
14013;SDS011;49110;52.584;13.408;2024-03-25T02:26:52;50.20;;;47.60;;
14013;SDS011;49110;52.584;13.408;2024-03-25T02:27:53;53.10;;;50.27;;
14013;SDS011;49110;52.584;13.408;2024-03-25T02:28:53;54.63;;;51.83;;
14013;SDS011;49110;52.584;13.408;2024-03-25T02:29:54;51.93;;;49.33;;
14013;SDS011;49110;52.584;13.408;2024-03-25T02:31:01;50.87;;;48.33;;
14013;SDS011;49110;52.584;13.408;2024-03-25T02:32:02;52.07;;;49.47;;
14013;SDS011;49110;52.584;13.408;2024-03-25T02:33:03;47.53;;;45.23;;
14013;SDS011;49110;52.584;13.408;2024-03-25T02:34:04;48.27;;;45.70;;
14013;SDS011;49110;52.584;13.408;2024-03-25T02:35:08;50.67;;;48.20;;
14013;SDS011;49110;52.584;13.408;2024-03-25T02:36:12;46.63;;;44.37;;
14013;SDS011;49110;52.584;13.408;2024-03-25T02:37:12;48.13;;;45.83;;
14013;SDS011;49110;52.584;13.408;2024-03-25T02:38:13;46.83;;;44.47;;
14013;SDS011;49110;52.584;13.408;2024-03-25T02:39:18;45.37;;;43.17;;
14013;SDS011;49110;52.584;13.408;2024-03-25T02:40:19;46.17;;;43.90;;
14013;SDS011;49110;52.584;13.408;2024-03-25T02:41:22;47.83;;;45.50;;
14013;SDS011;49110;52.584;13.408;2024-03-25T02:42:28;48.33;;;45.97;;
14013;SDS011;49110;52.584;13.408;2024-03-25T02:43:29;48.50;;;46.13;;
14013;SDS011;49110;52.584;13.408;2024-03-25T02:44:37;46.03;;;43.75;;
14013;SDS011;49110;52.584;13.408;2024-03-25T02:45:37;51.47;;;48.93;;
14013;SDS011;49110;52.584;13.408;2024-03-25T02:46:41;49.40;;;46.97;;
14013;SDS011;49110;52.584;13.408;2024-03-25T02:47:43;49.73;;;47.30;;
14013;SDS011;49110;52.584;13.408;2024-03-25T02:48:45;52.03;;;49.53;;
14013;SDS011;49110;52.584;13.408;2024-03-25T02:49:46;49.03;;;46.57;;
14013;SDS011;49110;52.584;13.408;2024-03-25T02:50:47;48.30;;;45.87;;
14013;SDS011;49110;52.584;13.408;2024-03-25T02:51:47;50.17;;;47.77;;
14013;SDS011;49110;52.584;13.408;2024-03-25T02:52:48;52.27;;;49.73;;
14013;SDS011;49110;52.584;13.408;2024-03-25T02:53:48;51.10;;;48.60;;
14013;SDS011;49110;52.584;13.408;2024-03-25T02:54:49;48.03;;;45.63;;
14013;SDS011;49110;52.584;13.408;2024-03-25T02:55:49;48.33;;;45.93;;
14013;SDS011;49110;52.584;13.408;2024-03-25T02:56:50;48.13;;;45.77;;
14013;SDS011;49110;52.584;13.408;2024-03-25T02:57:50;47.90;;;45.53;;
14013;SDS011;49110;52.584;13.408;2024-03-25T02:58:51;50.70;;;48.13;;
14013;SDS011;49110;52.584;13.408;2024-03-25T03:00:04;44.73;;;42.53;;
14013;SDS011;49110;52.584;13.408;2024-03-25T03:01:05;49.50;;;47.10;;
14013;SDS011;49110;52.584;13.408;2024-03-25T03:02:05;47.77;;;45.43;;
14013;SDS011;49110;52.584;13.408;2024-03-25T03:03:06;50.00;;;47.43;;
14013;SDS011;49110;52.584;13.408;2024-03-25T03:04:07;49.33;;;46.93;;
14013;SDS011;49110;52.584;13.408;2024-03-25T03:05:08;51.03;;;48.37;;
14013;SDS011;49110;52.584;13.408;2024-03-25T03:06:08;49.57;;;47.17;;
14013;SDS011;49110;52.584;13.408;2024-03-25T03:07:09;51.87;;;49.37;;
14013;SDS011;49110;52.584;13.408;2024-03-25T03:08:10;49.53;;;46.93;;
14013;SDS011;49110;52.584;13.408;2024-03-25T03:09:10;52.80;;;50.10;;
14013;SDS011;49110;52.584;13.408;2024-03-25T03:10:11;51.70;;;49.00;;
14013;SDS011;49110;52.584;13.408;2024-03-25T03:11:11;51.00;;;48.13;;
14013;SDS011;49110;52.584;13.408;2024-03-25T03:12:12;51.80;;;49.23;;
14013;SDS011;49110;52.584;13.408;2024-03-25T03:13:12;57.47;;;54.60;;
14013;SDS011;49110;52.584;13.408;2024-03-25T03:14:13;56.10;;;53.30;;
14013;SDS011;49110;52.584;13.408;2024-03-25T03:15:13;55.10;;;52.30;;
14013;SDS011;49110;52.584;13.408;2024-03-25T03:16:15;55.93;;;53.00;;
14013;SDS011;49110;52.584;13.408;2024-03-25T03:17:15;54.23;;;51.50;;
14013;SDS011;49110;52.584;13.408;2024-03-25T03:18:16;56.13;;;53.33;;
14013;SDS011;49110;52.584;13.408;2024-03-25T03:19:17;57.03;;;54.13;;
14013;SDS011;49110;52.584;13.408;2024-03-25T03:20:17;55.10;;;52.37;;
14013;SDS011;49110;52.584;13.408;2024-03-25T03:21:18;57.00;;;53.90;;
14013;SDS011;49110;52.584;13.408;2024-03-25T03:22:18;56.80;;;53.90;;
14013;SDS011;49110;52.584;13.408;2024-03-25T03:23:19;58.37;;;55.47;;
14013;SDS011;49110;52.584;13.408;2024-03-25T03:24:19;57.07;;;54.23;;
14013;SDS011;49110;52.584;13.408;2024-03-25T03:25:21;59.13;;;56.15;;
14013;SDS011;49110;52.584;13.408;2024-03-25T03:26:21;57.57;;;54.63;;
14013;SDS011;49110;52.584;13.408;2024-03-25T03:27:26;55.78;;;52.92;;
14013;SDS011;49110;52.584;13.408;2024-03-25T03:28:27;60.07;;;57.07;;
14013;SDS011;49110;52.584;13.408;2024-03-25T03:29:28;57.10;;;54.23;;
14013;SDS011;49110;52.584;13.408;2024-03-25T03:30:29;56.63;;;53.77;;
14013;SDS011;49110;52.584;13.408;2024-03-25T03:31:30;55.43;;;52.67;;
14013;SDS011;49110;52.584;13.408;2024-03-25T03:32:30;58.73;;;55.73;;
14013;SDS011;49110;52.584;13.408;2024-03-25T03:33:31;59.40;;;56.40;;
14013;SDS011;49110;52.584;13.408;2024-03-25T03:34:32;56.43;;;53.53;;
14013;SDS011;49110;52.584;13.408;2024-03-25T03:35:32;57.73;;;54.63;;
14013;SDS011;49110;52.584;13.408;2024-03-25T03:36:33;56.83;;;53.83;;
14013;SDS011;49110;52.584;13.408;2024-03-25T03:37:34;56.37;;;53.50;;
14013;SDS011;49110;52.584;13.408;2024-03-25T03:38:34;55.87;;;53.03;;
14013;SDS011;49110;52.584;13.408;2024-03-25T03:39:35;55.83;;;53.00;;
14013;SDS011;49110;52.584;13.408;2024-03-25T03:40:35;56.00;;;53.10;;
14013;SDS011;49110;52.584;13.408;2024-03-25T03:41:36;55.10;;;52.23;;
14013;SDS011;49110;52.584;13.408;2024-03-25T03:42:36;56.13;;;53.17;;
14013;SDS011;49110;52.584;13.408;2024-03-25T03:43:37;57.47;;;54.47;;
14013;SDS011;49110;52.584;13.408;2024-03-25T03:44:37;54.93;;;52.07;;
14013;SDS011;49110;52.584;13.408;2024-03-25T03:45:38;56.17;;;53.27;;
14013;SDS011;49110;52.584;13.408;2024-03-25T03:46:39;55.53;;;52.43;;
14013;SDS011;49110;52.584;13.408;2024-03-25T03:47:39;57.23;;;54.30;;
14013;SDS011;49110;52.584;13.408;2024-03-25T03:48:40;55.53;;;52.57;;
14013;SDS011;49110;52.584;13.408;2024-03-25T03:49:41;55.23;;;52.40;;
14013;SDS011;49110;52.584;13.408;2024-03-25T03:50:43;54.77;;;51.97;;
14013;SDS011;49110;52.584;13.408;2024-03-25T03:51:44;53.03;;;50.30;;
14013;SDS011;49110;52.584;13.408;2024-03-25T03:52:45;52.93;;;50.13;;
14013;SDS011;49110;52.584;13.408;2024-03-25T03:53:45;52.87;;;50.07;;
14013;SDS011;49110;52.584;13.408;2024-03-25T03:54:46;54.27;;;51.40;;
14013;SDS011;49110;52.584;13.408;2024-03-25T03:55:53;52.73;;;49.97;;
14013;SDS011;49110;52.584;13.408;2024-03-25T03:56:58;50.30;;;47.70;;
14013;SDS011;49110;52.584;13.408;2024-03-25T03:57:58;52.43;;;49.60;;
14013;SDS011;49110;52.584;13.408;2024-03-25T03:58:59;56.30;;;53.23;;
14013;SDS011;49110;52.584;13.408;2024-03-25T03:59:59;54.37;;;51.57;;
14013;SDS011;49110;52.584;13.408;2024-03-25T04:01:00;57.53;;;54.53;;
14013;SDS011;49110;52.584;13.408;2024-03-25T04:02:01;56.40;;;53.47;;
14013;SDS011;49110;52.584;13.408;2024-03-25T04:03:01;56.23;;;53.33;;
14013;SDS011;49110;52.584;13.408;2024-03-25T04:04:02;56.07;;;53.23;;
14013;SDS011;49110;52.584;13.408;2024-03-25T04:05:04;56.57;;;53.57;;
14013;SDS011;49110;52.584;13.408;2024-03-25T04:06:08;55.83;;;52.87;;
14013;SDS011;49110;52.584;13.408;2024-03-25T04:07:10;56.70;;;53.80;;
14013;SDS011;49110;52.584;13.408;2024-03-25T04:08:11;54.33;;;51.47;;
14013;SDS011;49110;52.584;13.408;2024-03-25T04:09:11;57.33;;;54.27;;
14013;SDS011;49110;52.584;13.408;2024-03-25T04:10:13;55.23;;;52.43;;
14013;SDS011;49110;52.584;13.408;2024-03-25T04:11:14;58.23;;;55.27;;
14013;SDS011;49110;52.584;13.408;2024-03-25T04:12:15;53.53;;;50.80;;
14013;SDS011;49110;52.584;13.408;2024-03-25T04:13:15;57.23;;;54.20;;
14013;SDS011;49110;52.584;13.408;2024-03-25T04:14:16;55.27;;;52.50;;
14013;SDS011;49110;52.584;13.408;2024-03-25T04:15:16;55.83;;;52.90;;
14013;SDS011;49110;52.584;13.408;2024-03-25T04:16:17;54.70;;;51.93;;
14013;SDS011;49110;52.584;13.408;2024-03-25T04:17:18;54.83;;;52.07;;
14013;SDS011;49110;52.584;13.408;2024-03-25T04:18:18;53.60;;;50.87;;
14013;SDS011;49110;52.584;13.408;2024-03-25T04:19:19;55.43;;;52.60;;
14013;SDS011;49110;52.584;13.408;2024-03-25T04:20:23;53.97;;;51.20;;
14013;SDS011;49110;52.584;13.408;2024-03-25T04:21:24;55.13;;;52.30;;
14013;SDS011;49110;52.584;13.408;2024-03-25T04:22:24;54.63;;;51.87;;
14013;SDS011;49110;52.584;13.408;2024-03-25T04:23:26;55.33;;;52.58;;
14013;SDS011;49110;52.584;13.408;2024-03-25T04:24:26;55.30;;;52.43;;
14013;SDS011;49110;52.584;13.408;2024-03-25T04:25:27;55.70;;;52.80;;
14013;SDS011;49110;52.584;13.408;2024-03-25T04:26:27;56.63;;;53.80;;
14013;SDS011;49110;52.584;13.408;2024-03-25T04:27:28;55.83;;;52.93;;
14013;SDS011;49110;52.584;13.408;2024-03-25T04:28:28;57.60;;;54.60;;
14013;SDS011;49110;52.584;13.408;2024-03-25T04:29:29;56.40;;;53.60;;
14013;SDS011;49110;52.584;13.408;2024-03-25T04:30:29;57.73;;;54.73;;
14013;SDS011;49110;52.584;13.408;2024-03-25T04:31:30;56.63;;;53.70;;
14013;SDS011;49110;52.584;13.408;2024-03-25T04:32:30;57.80;;;54.83;;
14013;SDS011;49110;52.584;13.408;2024-03-25T04:33:31;59.13;;;56.07;;
14013;SDS011;49110;52.584;13.408;2024-03-25T04:34:41;52.30;;;49.63;;
14013;SDS011;49110;52.584;13.408;2024-03-25T04:35:41;55.60;;;52.77;;
14013;SDS011;49110;52.584;13.408;2024-03-25T04:36:42;54.47;;;51.70;;
14013;SDS011;49110;52.584;13.408;2024-03-25T04:37:43;55.63;;;52.83;;
14013;SDS011;49110;52.584;13.408;2024-03-25T04:38:43;57.17;;;54.23;;
14013;SDS011;49110;52.584;13.408;2024-03-25T04:39:44;58.90;;;55.90;;
14013;SDS011;49110;52.584;13.408;2024-03-25T04:40:45;58.53;;;55.47;;
14013;SDS011;49110;52.584;13.408;2024-03-25T04:41:46;54.90;;;52.10;;
14013;SDS011;49110;52.584;13.408;2024-03-25T04:42:47;56.13;;;53.23;;
14013;SDS011;49110;52.584;13.408;2024-03-25T04:43:47;57.30;;;54.33;;
14013;SDS011;49110;52.584;13.408;2024-03-25T04:44:48;55.10;;;52.30;;
14013;SDS011;49110;52.584;13.408;2024-03-25T04:45:48;59.23;;;56.30;;
14013;SDS011;49110;52.584;13.408;2024-03-25T04:46:49;55.60;;;52.80;;
14013;SDS011;49110;52.584;13.408;2024-03-25T04:47:49;58.47;;;55.47;;
14013;SDS011;49110;52.584;13.408;2024-03-25T04:48:50;58.07;;;55.10;;
14013;SDS011;49110;52.584;13.408;2024-03-25T04:49:50;54.93;;;52.23;;
14013;SDS011;49110;52.584;13.408;2024-03-25T04:50:51;54.47;;;51.63;;
14013;SDS011;49110;52.584;13.408;2024-03-25T04:51:52;58.27;;;55.37;;
14013;SDS011;49110;52.584;13.408;2024-03-25T04:52:53;58.00;;;55.00;;
14013;SDS011;49110;52.584;13.408;2024-03-25T04:53:53;54.30;;;51.53;;
14013;SDS011;49110;52.584;13.408;2024-03-25T04:54:54;55.27;;;52.50;;
14013;SDS011;49110;52.584;13.408;2024-03-25T04:55:55;54.57;;;51.73;;
14013;SDS011;49110;52.584;13.408;2024-03-25T04:56:55;53.67;;;50.90;;
14013;SDS011;49110;52.584;13.408;2024-03-25T04:57:56;54.43;;;51.67;;
14013;SDS011;49110;52.584;13.408;2024-03-25T04:58:56;54.40;;;51.57;;
14013;SDS011;49110;52.584;13.408;2024-03-25T05:00:01;54.67;;;51.92;;
14013;SDS011;49110;52.584;13.408;2024-03-25T05:01:02;54.07;;;51.30;;
14013;SDS011;49110;52.584;13.408;2024-03-25T05:02:03;57.23;;;54.27;;
14013;SDS011;49110;52.584;13.408;2024-03-25T05:03:03;58.93;;;55.83;;
14013;SDS011;49110;52.584;13.408;2024-03-25T05:04:05;56.45;;;53.40;;
14013;SDS011;49110;52.584;13.408;2024-03-25T05:05:09;56.58;;;53.58;;
14013;SDS011;49110;52.584;13.408;2024-03-25T05:06:09;55.10;;;52.20;;
14013;SDS011;49110;52.584;13.408;2024-03-25T05:07:11;55.53;;;52.53;;
14013;SDS011;49110;52.584;13.408;2024-03-25T05:08:11;53.67;;;50.93;;
14013;SDS011;49110;52.584;13.408;2024-03-25T05:09:12;53.40;;;50.63;;
14013;SDS011;49110;52.584;13.408;2024-03-25T05:10:12;58.13;;;55.03;;
14013;SDS011;49110;52.584;13.408;2024-03-25T05:11:13;55.43;;;52.60;;
14013;SDS011;49110;52.584;13.408;2024-03-25T05:12:13;56.70;;;53.73;;
14013;SDS011;49110;52.584;13.408;2024-03-25T05:13:14;58.30;;;55.30;;
14013;SDS011;49110;52.584;13.408;2024-03-25T05:14:16;54.38;;;51.42;;
14013;SDS011;49110;52.584;13.408;2024-03-25T05:15:16;54.47;;;51.63;;
14013;SDS011;49110;52.584;13.408;2024-03-25T05:16:17;51.07;;;48.43;;
14013;SDS011;49110;52.584;13.408;2024-03-25T05:17:17;53.47;;;50.60;;
14013;SDS011;49110;52.584;13.408;2024-03-25T05:18:18;55.70;;;52.80;;
14013;SDS011;49110;52.584;13.408;2024-03-25T05:19:19;55.47;;;52.43;;
14013;SDS011;49110;52.584;13.408;2024-03-25T05:20:19;54.53;;;51.63;;
14013;SDS011;49110;52.584;13.408;2024-03-25T05:21:21;54.90;;;52.00;;
14013;SDS011;49110;52.584;13.408;2024-03-25T05:22:22;56.80;;;53.70;;
14013;SDS011;49110;52.584;13.408;2024-03-25T05:23:22;56.37;;;53.50;;
14013;SDS011;49110;52.584;13.408;2024-03-25T05:24:23;56.30;;;53.33;;
14013;SDS011;49110;52.584;13.408;2024-03-25T05:25:23;53.77;;;50.93;;
14013;SDS011;49110;52.584;13.408;2024-03-25T05:26:28;55.85;;;52.92;;
14013;SDS011;49110;52.584;13.408;2024-03-25T05:27:29;55.23;;;52.30;;
14013;SDS011;49110;52.584;13.408;2024-03-25T05:28:29;55.13;;;52.20;;
14013;SDS011;49110;52.584;13.408;2024-03-25T05:29:30;54.10;;;51.30;;
14013;SDS011;49110;52.584;13.408;2024-03-25T05:30:31;56.53;;;53.57;;
14013;SDS011;49110;52.584;13.408;2024-03-25T05:31:31;54.63;;;51.87;;
14013;SDS011;49110;52.584;13.408;2024-03-25T05:32:32;53.93;;;51.10;;
14013;SDS011;49110;52.584;13.408;2024-03-25T05:33:32;55.53;;;52.70;;
14013;SDS011;49110;52.584;13.408;2024-03-25T05:34:33;56.00;;;53.00;;
14013;SDS011;49110;52.584;13.408;2024-03-25T05:35:33;56.53;;;53.53;;
14013;SDS011;49110;52.584;13.408;2024-03-25T05:36:36;54.40;;;51.60;;
14013;SDS011;49110;52.584;13.408;2024-03-25T05:37:37;55.50;;;52.67;;
14013;SDS011;49110;52.584;13.408;2024-03-25T05:38:37;54.83;;;51.93;;
14013;SDS011;49110;52.584;13.408;2024-03-25T05:39:38;57.57;;;54.57;;
14013;SDS011;49110;52.584;13.408;2024-03-25T05:40:38;56.73;;;53.67;;
14013;SDS011;49110;52.584;13.408;2024-03-25T05:41:39;57.70;;;54.63;;
14013;SDS011;49110;52.584;13.408;2024-03-25T05:42:39;55.13;;;52.13;;
14013;SDS011;49110;52.584;13.408;2024-03-25T05:43:40;56.07;;;53.03;;
14013;SDS011;49110;52.584;13.408;2024-03-25T05:44:40;57.57;;;54.57;;
14013;SDS011;49110;52.584;13.408;2024-03-25T05:45:41;53.97;;;51.03;;
14013;SDS011;49110;52.584;13.408;2024-03-25T05:46:50;50.27;;;47.57;;
14013;SDS011;49110;52.584;13.408;2024-03-25T05:47:51;54.23;;;51.40;;
14013;SDS011;49110;52.584;13.408;2024-03-25T05:48:51;53.90;;;51.03;;
14013;SDS011;49110;52.584;13.408;2024-03-25T05:49:52;57.57;;;54.47;;
14013;SDS011;49110;52.584;13.408;2024-03-25T05:51:59;54.53;;;51.63;;
14013;SDS011;49110;52.584;13.408;2024-03-25T05:53:00;53.90;;;51.03;;
14013;SDS011;49110;52.584;13.408;2024-03-25T05:54:00;53.97;;;51.10;;